Time;durP1;ratioP1;P1;durP2;ratioP2;P2;SDS_P1;SDS_P2;PMS_P1;PMS_P2;Temp;Humidity;BMP_temperature;BMP_pressure;BME280_temperature;BME280_humidity;BME280_pressure;Samples;Min_cycle;Max_cycle;Signal;HPM_P1;HPM_P2
2021/11/02 00:01:03;;;;;;;;;;;7.10;99.90;;;;;;5084764;28;20034;-79
2021/11/02 00:03:30;;;;;;;;;;;7.10;99.90;;;;;;5081324;28;19931;-77
2021/11/02 00:05:57;;;;;;;;;;;7.00;99.90;;;;;;5082513;28;19924;-78
2021/11/02 00:08:24;;;;;;;;;;;7.00;99.90;;;;;;5084374;28;20031;-78
2021/11/02 00:10:50;;;;;;;;;;;7.00;99.90;;;;;;5084777;28;19924;-78
2021/11/02 00:13:25;;;;;;;;;;;6.90;99.90;;;;;;5086353;28;20485;-78
2021/11/02 00:15:58;;;;;;;;;;;6.90;99.90;;;;;;5088224;28;20465;-79
2021/11/02 00:18:26;;;;;;;;;;;6.90;99.90;;;;;;5081522;28;20388;-79
2021/11/02 00:20:58;;;;;;;;;;;6.90;99.90;;;;;;5080933;28;19974;-77
2021/11/02 00:23:25;;;;;;;;;;;6.80;99.90;;;;;;5081909;28;19947;-77
2021/11/02 00:25:52;;;;;;;;;;;6.80;99.90;;;;;;5085182;28;20463;-77
2021/11/02 00:28:20;;;;;;;;;;;6.80;99.90;;;;;;5087136;28;20294;-78
2021/11/02 00:30:47;;;;;;;;;;;6.80;99.90;;;;;;5088530;28;20335;-79
2021/11/02 00:33:13;;;;;;;;;;;6.80;99.90;;;;;;5083751;28;19930;-78
2021/11/02 00:35:40;;;;;;;;;;;6.70;99.90;;;;;;5079414;28;20031;-79
2021/11/02 00:38:07;;;;;;;;;;;6.70;99.90;;;;;;5084034;28;20023;-78
2021/11/02 00:40:36;;;;;;;;;;;6.60;99.90;;;;;;5083262;28;20022;-77
2021/11/02 00:43:04;;;;;;;;;;;6.60;99.90;;;;;;5083253;28;19927;-81
2021/11/02 00:45:34;;;;;;;;;;;6.60;99.90;;;;;;5076388;28;19940;-79
2021/11/02 00:48:02;;;;;;;;;;;6.60;99.90;;;;;;5082218;28;19924;-79
2021/11/02 00:50:31;;;;;;;;;;;6.60;99.90;;;;;;5084408;28;19925;-79
2021/11/02 00:52:57;;;;;;;;;;;6.60;99.90;;;;;;5085281;28;19923;-80
2021/11/02 00:55:24;;;;;;;;;;;6.60;99.90;;;;;;5092756;28;20010;-81
2021/11/02 00:57:51;;;;;;;;;;;6.60;99.90;;;;;;5090587;28;20020;-80
2021/11/02 01:00:17;;;;;;;;;;;6.50;99.90;;;;;;5085192;28;19924;-79
2021/11/02 01:02:46;;;;;;;;;;;6.50;99.90;;;;;;5089462;28;19947;-81
2021/11/02 01:05:14;;;;;;;;;;;6.50;99.90;;;;;;5082370;28;19931;-81
2021/11/02 01:07:41;;;;;;;;;;;6.50;99.90;;;;;;5090716;28;19986;-80
2021/11/02 01:10:13;;;;;;;;;;;6.50;99.90;;;;;;5082097;28;20422;-81
2021/11/02 01:12:40;;;;;;;;;;;6.50;99.90;;;;;;5084427;28;20018;-79
2021/11/02 01:15:07;;;;;;;;;;;6.40;99.90;;;;;;5085580;28;20015;-79
2021/11/02 01:17:34;;;;;;;;;;;6.40;99.90;;;;;;5081782;28;20027;-81
2021/11/02 01:20:03;;;;;;;;;;;6.40;99.90;;;;;;5079247;28;20023;-81
2021/11/02 01:22:30;;;;;;;;;;;6.50;99.90;;;;;;5079582;28;20299;-79
2021/11/02 01:24:57;;;;;;;;;;;6.50;99.90;;;;;;5082885;28;20022;-79
2021/11/02 01:27:24;;;;;;;;;;;6.50;99.90;;;;;;5083445;28;19939;-81
2021/11/02 01:29:50;;;;;;;;;;;6.40;99.90;;;;;;5082945;28;20467;-80
2021/11/02 01:32:17;;;;;;;;;;;6.50;99.90;;;;;;5083414;28;20022;-77
2021/11/02 01:34:44;;;;;;;;;;;6.50;99.90;;;;;;5082619;28;19925;-78
2021/11/02 01:37:12;;;;;;;;;;;6.50;99.90;;;;;;5081211;28;19938;-78
2021/11/02 01:39:38;;;;;;;;;;;6.40;99.90;;;;;;5080541;28;20015;-78
2021/11/02 01:42:05;;;;;;;;;;;6.40;99.90;;;;;;5082324;28;20015;-79
2021/11/02 01:44:32;;;;;;;;;;;6.50;99.90;;;;;;5086287;28;20011;-78
2021/11/02 01:46:59;;;;;;;;;;;6.50;99.90;;;;;;5077982;28;19931;-78
2021/11/02 01:49:25;;;;;;;;;;;6.50;99.90;;;;;;5087505;28;19999;-79
2021/11/02 01:51:52;;;;;;;;;;;6.50;99.90;;;;;;5082330;28;19931;-78
2021/11/02 01:54:20;;;;;;;;;;;6.40;99.90;;;;;;5086108;28;19935;-78
2021/11/02 01:56:48;;;;;;;;;;;6.50;99.90;;;;;;5075653;28;20027;-77
2021/11/02 01:59:15;;;;;;;;;;;6.50;99.90;;;;;;5081497;28;19931;-77
2021/11/02 02:01:48;;;;;;;;;;;6.50;99.90;;;;;;5078831;28;19932;-77
2021/11/02 02:04:20;;;;;;;;;;;6.50;99.90;;;;;;5085351;28;20328;-77
2021/11/02 02:06:52;;;;;;;;;;;6.50;99.90;;;;;;5082467;28;19929;-78
2021/11/02 02:09:23;;;;;;;;;;;6.50;99.90;;;;;;5084616;28;19999;-76
2021/11/02 02:11:55;;;;;;;;;;;6.50;99.90;;;;;;5083342;28;20185;-79
2021/11/02 02:14:25;;;;;;;;;;;6.50;99.90;;;;;;5083302;28;20397;-79
2021/11/02 02:16:53;;;;;;;;;;;6.50;99.90;;;;;;5082144;28;19938;-78
2021/11/02 02:19:31;;;;;;;;;;;6.50;99.90;;;;;;5085302;28;20381;-78
2021/11/02 02:22:04;;;;;;;;;;;6.60;99.90;;;;;;5080738;28;20030;-79
2021/11/02 02:24:40;;;;;;;;;;;6.60;99.90;;;;;;5081035;28;19932;-80
2021/11/02 02:27:13;;;;;;;;;;;6.70;99.90;;;;;;5078408;28;19924;-80
2021/11/02 02:29:43;;;;;;;;;;;6.80;99.90;;;;;;5074819;28;19931;-79
2021/11/02 02:32:16;;;;;;;;;;;6.80;99.90;;;;;;5077263;28;19925;-79
2021/11/02 02:34:43;;;;;;;;;;;6.80;99.90;;;;;;5086794;28;19924;-77
2021/11/02 02:37:10;;;;;;;;;;;6.90;99.90;;;;;;5082176;28;21558;-79
2021/11/02 02:39:38;;;;;;;;;;;6.90;99.90;;;;;;5084709;28;19924;-79
2021/11/02 02:42:05;;;;;;;;;;;7.00;99.90;;;;;;5082624;28;19924;-80
2021/11/02 02:44:33;;;;;;;;;;;7.00;99.90;;;;;;5078138;28;19924;-80
2021/11/02 02:47:02;;;;;;;;;;;6.90;99.90;;;;;;5085554;28;19924;-79
2021/11/02 02:49:29;;;;;;;;;;;6.90;99.90;;;;;;5086608;28;20015;-79
2021/11/02 02:51:56;;;;;;;;;;;6.90;99.90;;;;;;5084060;28;20105;-79
2021/11/02 02:54:25;;;;;;;;;;;6.90;99.90;;;;;;5075775;28;20011;-79
2021/11/02 02:56:52;;;;;;;;;;;6.90;99.90;;;;;;5079895;28;19929;-79
2021/11/02 02:59:20;;;;;;;;;;;6.90;99.90;;;;;;5084921;28;19924;-80
2021/11/02 03:01:48;;;;;;;;;;;6.90;99.90;;;;;;5078670;28;20378;-79
2021/11/02 03:04:19;;;;;;;;;;;6.80;99.90;;;;;;5084158;28;21925;-80
2021/11/02 03:06:51;;;;;;;;;;;6.80;99.90;;;;;;5085045;28;20006;-80
2021/11/02 03:09:19;;;;;;;;;;;6.80;99.90;;;;;;5073004;28;20140;-79
2021/11/02 03:11:46;;;;;;;;;;;6.80;99.90;;;;;;5083210;28;19924;-78
2021/11/02 03:14:15;;;;;;;;;;;6.90;99.90;;;;;;5080401;28;19928;-79
2021/11/02 03:16:51;;;;;;;;;;;6.90;99.90;;;;;;5082079;28;20311;-79
2021/11/02 03:20:07;;;;;;;;;;;6.90;99.90;;;;;;5076847;28;19950;-78
2021/11/02 03:45:01;;;;;;;;;;;7.10;99.90;;;;;;5081176;28;19931;-78
2021/11/02 03:50:23;;;;;;;;;;;7.20;99.90;;;;;;5081005;28;19931;-80
2021/11/02 03:55:40;;;;;;;;;;;7.30;99.90;;;;;;5079821;28;19943;-78
2021/11/02 03:58:12;;;;;;;;;;;7.30;99.90;;;;;;5082333;28;19924;-80
2021/11/02 04:01:05;;;;;;;;;;;7.30;99.90;;;;;;5088299;28;19924;-80
2021/11/02 04:28:43;;;;;;;;;;;7.40;99.90;;;;;;5080881;28;19930;-78
2021/11/02 04:31:25;;;;;;;;;;;7.50;99.90;;;;;;5080144;28;19924;-78
2021/11/02 05:10:05;;;;;;;;;;;7.60;99.90;;;;;;5082863;28;20121;-75
2021/11/02 05:48:46;;;;;;;;;;;7.60;99.90;;;;;;5084683;28;19931;-74
2021/11/02 05:51:32;;;;;;;;;;;7.60;99.90;;;;;;5090803;28;19924;-74
2021/11/02 05:56:45;;;;;;;;;;;7.60;99.90;;;;;;5072941;28;20016;-74
2021/11/02 05:59:26;;;;;;;;;;;7.60;99.90;;;;;;5081123;28;19939;-74
2021/11/02 06:01:59;;;;;;;;;;;7.60;99.90;;;;;;5089520;28;19947;-74
2021/11/02 06:04:44;;;;;;;;;;;7.60;99.90;;;;;;5090650;28;19928;-74
2021/11/02 06:07:28;;;;;;;;;;;7.70;99.90;;;;;;5087376;28;19924;-75
2021/11/02 06:10:01;;;;;;;;;;;7.70;99.90;;;;;;5082778;28;20342;-74
2021/11/02 06:27:43;;;;;;;;;;;7.70;99.90;;;;;;5086456;28;19931;-75
2021/11/02 06:29:17;;;;;;;;;;;7.80;99.90;;;;;;5081511;28;19943;-74
2021/11/02 06:31:53;;;;;;;;;;;7.80;99.90;;;;;;5076664;28;19924;-74
2021/11/02 06:34:24;;;;;;;;;;;7.80;99.90;;;;;;5088613;28;19955;-74
2021/11/02 06:42:51;;;;;;;;;;;7.90;99.90;;;;;;5099505;28;19924;-75
2021/11/02 06:45:51;;;;;;;;;;;7.90;99.90;;;;;;5076190;28;19978;-76
2021/11/02 06:51:30;;;;;;;;;;;7.90;99.90;;;;;;5080483;28;19986;-75
2021/11/02 06:54:24;;;;;;;;;;;8.00;99.90;;;;;;5086302;28;19928;-76
2021/11/02 07:17:05;;;;;;;;;;;8.30;99.90;;;;;;5037435;28;19925;-77
2021/11/02 07:19:34;;;;;;;;;;;8.30;99.90;;;;;;5113037;28;19924;-77
2021/11/02 07:22:13;;;;;;;;;;;8.30;99.90;;;;;;5121077;28;19927;-74
2021/11/02 07:24:48;;;;;;;;;;;8.40;99.90;;;;;;5118716;27;19935;-74
2021/11/02 07:27:28;;;;;;;;;;;8.40;99.90;;;;;;5120311;28;19958;-73
2021/11/02 08:45:25;;;;;;;;;;;8.70;99.90;;;;;;5059698;28;19940;-72
2021/11/02 08:47:56;;;;;;;;;;;8.80;99.90;;;;;;5064642;28;19924;-73
2021/11/02 08:50:24;;;;;;;;;;;8.90;99.90;;;;;;5055110;28;19924;-73
2021/11/02 08:52:51;;;;;;;;;;;9.00;99.90;;;;;;5063522;28;19975;-74
2021/11/02 08:55:20;;;;;;;;;;;9.00;99.90;;;;;;5064025;28;19994;-75
2021/11/02 08:57:46;;;;;;;;;;;9.00;99.90;;;;;;5065236;28;19958;-73
2021/11/02 09:00:14;;;;;;;;;;;9.00;99.90;;;;;;5062353;28;19932;-76
2021/11/02 09:02:42;;;;;;;;;;;9.00;99.90;;;;;;5062059;28;19929;-77
2021/11/02 09:05:10;;;;;;;;;;;8.90;99.90;;;;;;5066568;28;20339;-74
2021/11/02 09:07:40;;;;;;;;;;;8.90;99.90;;;;;;5063858;28;19924;-74
2021/11/02 09:10:11;;;;;;;;;;;8.90;99.90;;;;;;5064371;28;20300;-71
2021/11/02 09:12:41;;;;;;;;;;;9.00;99.90;;;;;;5064467;28;20042;-71
2021/11/02 09:15:09;;;;;;;;;;;9.00;99.90;;;;;;5066124;28;19935;-69
2021/11/02 09:17:40;;;;;;;;;;;9.00;99.90;;;;;;5065100;28;19924;-70
2021/11/02 09:20:07;;;;;;;;;;;9.00;99.90;;;;;;5061530;28;19943;-71
2021/11/02 09:22:34;;;;;;;;;;;9.00;99.90;;;;;;5062593;28;19924;-70
2021/11/02 09:25:01;;;;;;;;;;;9.00;99.90;;;;;;5059643;28;19966;-71
2021/11/02 09:27:28;;;;;;;;;;;9.00;99.90;;;;;;5059405;28;19998;-71
2021/11/02 09:29:58;;;;;;;;;;;9.00;99.90;;;;;;5059819;28;19925;-71
2021/11/02 09:32:25;;;;;;;;;;;8.90;99.90;;;;;;5058878;28;19970;-71
2021/11/02 09:34:52;;;;;;;;;;;8.90;99.90;;;;;;5060964;28;20318;-72
2021/11/02 09:37:21;;;;;;;;;;;8.80;99.90;;;;;;5059566;28;19928;-73
2021/11/02 09:39:49;;;;;;;;;;;8.80;99.90;;;;;;5056416;28;20032;-74
2021/11/02 09:42:31;;;;;;;;;;;8.80;99.90;;;;;;5063214;28;20335;-74
2021/11/02 09:45:19;;;;;;;;;;;8.80;99.90;;;;;;5058900;28;20290;-70
2021/11/02 09:48:00;;;;;;;;;;;8.80;99.90;;;;;;5062412;28;19951;-71
2021/11/02 09:50:54;;;;;;;;;;;8.80;99.90;;;;;;5057680;28;20011;-71
2021/11/02 09:53:34;;;;;;;;;;;9.00;99.90;;;;;;5060337;28;20050;-72
2021/11/02 09:56:07;;;;;;;;;;;9.20;99.90;;;;;;5059979;28;19928;-73
2021/11/02 09:58:42;;;;;;;;;;;9.30;99.90;;;;;;5060817;28;20023;-73
2021/11/02 10:01:28;;;;;;;;;;;9.50;99.90;;;;;;5059099;28;20310;-73
2021/11/02 10:04:07;;;;;;;;;;;9.60;99.90;;;;;;5058780;28;19928;-71
2021/11/02 10:06:44;;;;;;;;;;;9.60;99.90;;;;;;5060439;28;19924;-72
2021/11/02 10:09:12;;;;;;;;;;;9.60;99.90;;;;;;5057719;28;20380;-71
2021/11/02 10:11:41;;;;;;;;;;;9.40;99.90;;;;;;5059284;28;19962;-71
2021/11/02 10:14:16;;;;;;;;;;;9.20;99.90;;;;;;5058658;28;19924;-71
2021/11/02 10:16:59;;;;;;;;;;;9.20;99.90;;;;;;5060832;28;19932;-72
2021/11/02 10:19:43;;;;;;;;;;;9.20;99.90;;;;;;5062738;28;20685;-75
2021/11/02 10:22:35;;;;;;;;;;;9.10;99.90;;;;;;5064214;28;19939;-74
2021/11/02 10:25:11;;;;;;;;;;;9.20;99.90;;;;;;5061084;28;20494;-73
2021/11/02 10:27:50;;;;;;;;;;;9.30;99.90;;;;;;5063745;28;19968;-75
2021/11/02 10:30:32;;;;;;;;;;;9.60;99.90;;;;;;5058785;28;20379;-73
2021/11/02 10:33:04;;;;;;;;;;;9.60;99.90;;;;;;5060198;28;19931;-76
2021/11/02 10:35:36;;;;;;;;;;;9.60;99.90;;;;;;5061728;28;19925;-74
2021/11/02 10:38:07;;;;;;;;;;;9.50;99.90;;;;;;5060963;28;20054;-73
2021/11/02 10:40:45;;;;;;;;;;;9.40;99.90;;;;;;5063554;28;20575;-72
2021/11/02 10:43:26;;;;;;;;;;;9.40;99.90;;;;;;5045283;28;19924;-71
2021/11/02 10:45:55;;;;;;;;;;;9.50;99.90;;;;;;5057696;28;19928;-72
2021/11/02 10:48:29;;;;;;;;;;;9.60;99.90;;;;;;5060767;28;20268;-70
2021/11/02 10:50:58;;;;;;;;;;;9.60;99.90;;;;;;5063089;28;19932;-72
2021/11/02 10:53:30;;;;;;;;;;;9.60;99.90;;;;;;5063976;28;19932;-72
2021/11/02 10:56:03;;;;;;;;;;;9.60;99.90;;;;;;5064231;28;20346;-72
2021/11/02 10:58:35;;;;;;;;;;;9.70;99.90;;;;;;5059844;28;20327;-73
2021/11/02 11:01:03;;;;;;;;;;;9.70;99.90;;;;;;5063515;28;19924;-72
2021/11/02 11:03:32;;;;;;;;;;;9.80;99.90;;;;;;5063919;28;20340;-73
2021/11/02 11:05:59;;;;;;;;;;;9.70;99.90;;;;;;5061341;28;19924;-73
2021/11/02 11:08:28;;;;;;;;;;;9.60;99.90;;;;;;5065078;28;20265;-73
2021/11/02 11:10:56;;;;;;;;;;;9.60;99.90;;;;;;5061324;28;20642;-75
2021/11/02 11:13:25;;;;;;;;;;;9.60;99.90;;;;;;5065275;28;20007;-73
2021/11/02 11:15:53;;;;;;;;;;;9.80;99.90;;;;;;5055229;28;20384;-74
2021/11/02 11:18:23;;;;;;;;;;;9.90;99.90;;;;;;5060142;28;19933;-73
2021/11/02 11:20:51;;;;;;;;;;;10.10;99.90;;;;;;5061375;28;19929;-73
2021/11/02 11:23:18;;;;;;;;;;;10.20;99.90;;;;;;5062035;28;19930;-73
2021/11/02 11:25:46;;;;;;;;;;;10.30;99.90;;;;;;5060553;28;19929;-74
2021/11/02 11:28:16;;;;;;;;;;;10.40;99.90;;;;;;5058209;28;19956;-71
2021/11/02 11:30:43;;;;;;;;;;;10.10;99.90;;;;;;5057073;28;20395;-71
2021/11/02 11:33:13;;;;;;;;;;;10.00;99.90;;;;;;5061174;28;19925;-71
2021/11/02 11:35:41;;;;;;;;;;;10.00;99.90;;;;;;5056646;28;20015;-73
2021/11/02 11:38:09;;;;;;;;;;;10.10;99.90;;;;;;5054962;28;21052;-73
2021/11/02 11:40:37;;;;;;;;;;;10.00;99.90;;;;;;5056880;28;19940;-73
2021/11/02 11:43:04;;;;;;;;;;;10.00;99.90;;;;;;5058829;28;19936;-73
2021/11/02 11:45:32;;;;;;;;;;;10.10;99.90;;;;;;5062002;28;20395;-74
2021/11/02 11:48:08;;;;;;;;;;;10.30;99.90;;;;;;5068493;28;19942;-74
2021/11/02 11:50:35;;;;;;;;;;;10.30;99.90;;;;;;5063552;28;20328;-72
2021/11/02 11:53:03;;;;;;;;;;;10.20;99.90;;;;;;5067071;28;19928;-73
2021/11/02 11:55:32;;;;;;;;;;;10.10;99.90;;;;;;5059648;28;20166;-73
2021/11/02 11:58:06;;;;;;;;;;;10.10;99.90;;;;;;5064457;28;20268;-73
2021/11/02 12:00:33;;;;;;;;;;;10.10;99.90;;;;;;5067561;28;19931;-73
2021/11/02 12:03:04;;;;;;;;;;;10.00;99.90;;;;;;5066670;28;19929;-74
2021/11/02 12:05:32;;;;;;;;;;;10.10;99.90;;;;;;5065317;28;19977;-73
2021/11/02 12:08:07;;;;;;;;;;;10.10;99.90;;;;;;5063926;28;20415;-74
2021/11/02 12:10:35;;;;;;;;;;;10.20;99.90;;;;;;5067637;28;19928;-72
2021/11/02 12:13:05;;;;;;;;;;;10.30;99.90;;;;;;5063717;28;19952;-73
2021/11/02 12:15:39;;;;;;;;;;;10.30;99.90;;;;;;5060847;28;20015;-74
2021/11/02 12:18:07;;;;;;;;;;;10.30;99.90;;;;;;5063568;28;19932;-74
2021/11/02 12:20:36;;;;;;;;;;;10.20;99.90;;;;;;5059704;28;19931;-73
2021/11/02 12:23:14;;;;;;;;;;;10.20;99.90;;;;;;5065775;28;19930;-73
2021/11/02 12:25:50;;;;;;;;;;;10.10;99.90;;;;;;5060550;28;19946;-74
2021/11/02 12:28:24;;;;;;;;;;;10.00;99.90;;;;;;5065532;28;20018;-72
2021/11/02 12:30:51;;;;;;;;;;;10.00;99.90;;;;;;5064574;28;19924;-72
2021/11/02 12:33:25;;;;;;;;;;;10.00;99.90;;;;;;5062081;28;19925;-74
2021/11/02 12:35:53;;;;;;;;;;;10.00;99.90;;;;;;5059694;28;19928;-73
2021/11/02 12:38:28;;;;;;;;;;;9.90;99.90;;;;;;5063165;28;19948;-73
2021/11/02 12:40:56;;;;;;;;;;;9.80;99.90;;;;;;5066716;28;19932;-73
2021/11/02 12:43:24;;;;;;;;;;;9.80;99.90;;;;;;5068729;28;20318;-73
2021/11/02 12:45:51;;;;;;;;;;;9.80;99.90;;;;;;5067606;28;19936;-73
2021/11/02 12:48:19;;;;;;;;;;;9.90;99.90;;;;;;5068674;28;20027;-73
2021/11/02 12:50:46;;;;;;;;;;;10.10;99.90;;;;;;5065450;28;20300;-74
2021/11/02 12:53:13;;;;;;;;;;;10.10;99.90;;;;;;5067341;28;20431;-73
2021/11/02 12:55:40;;;;;;;;;;;10.20;99.90;;;;;;5065382;28;19925;-73
2021/11/02 12:58:17;;;;;;;;;;;10.40;99.90;;;;;;5068662;28;19937;-73
2021/11/02 13:00:44;;;;;;;;;;;10.40;99.90;;;;;;5064112;28;20031;-73
2021/11/02 13:03:20;;;;;;;;;;;10.30;99.90;;;;;;5067973;28;19972;-73
2021/11/02 13:05:55;;;;;;;;;;;10.30;99.90;;;;;;5060445;28;20011;-73
2021/11/02 13:08:29;;;;;;;;;;;10.30;99.90;;;;;;5067001;28;19930;-73
2021/11/02 13:11:03;;;;;;;;;;;10.20;99.90;;;;;;5066995;28;20333;-74
2021/11/02 13:13:40;;;;;;;;;;;10.30;99.90;;;;;;5063614;28;19940;-74
2021/11/02 13:16:08;;;;;;;;;;;10.40;99.90;;;;;;5064643;28;19934;-73
2021/11/02 13:18:36;;;;;;;;;;;10.40;99.90;;;;;;5065788;28;19995;-74
2021/11/02 13:21:19;;;;;;;;;;;10.40;99.90;;;;;;5065634;28;19924;-73
2021/11/02 13:23:52;;;;;;;;;;;10.50;99.90;;;;;;5064759;28;19979;-73
2021/11/02 13:26:20;;;;;;;;;;;10.50;99.90;;;;;;5064895;28;19936;-73
2021/11/02 13:28:48;;;;;;;;;;;10.50;99.90;;;;;;5066979;28;19925;-73
2021/11/02 13:31:24;;;;;;;;;;;10.50;99.90;;;;;;5060279;28;20439;-73
2021/11/02 13:33:55;;;;;;;;;;;10.50;99.90;;;;;;5056734;28;19928;-74
2021/11/02 13:36:22;;;;;;;;;;;10.60;99.90;;;;;;5064802;28;19925;-75
2021/11/02 13:38:48;;;;;;;;;;;10.80;99.90;;;;;;5067010;28;19925;-72
2021/11/02 13:41:19;;;;;;;;;;;10.90;99.90;;;;;;5067306;28;19929;-72
2021/11/02 13:43:46;;;;;;;;;;;11.00;99.90;;;;;;5064642;28;19951;-73
2021/11/02 13:46:16;;;;;;;;;;;11.00;99.90;;;;;;5065334;28;19928;-73
2021/11/02 13:48:42;;;;;;;;;;;11.10;99.90;;;;;;5063569;28;19925;-74
2021/11/02 13:51:10;;;;;;;;;;;11.20;99.90;;;;;;5065028;28;19931;-73
2021/11/02 13:53:37;;;;;;;;;;;11.30;99.90;;;;;;5065154;28;19976;-74
2021/11/02 13:56:05;;;;;;;;;;;11.30;99.90;;;;;;5064406;28;19924;-74
2021/11/02 13:58:32;;;;;;;;;;;11.40;99.90;;;;;;5065398;28;19925;-73
2021/11/02 14:00:58;;;;;;;;;;;11.50;99.90;;;;;;5064238;28;19930;-73
2021/11/02 14:03:30;;;;;;;;;;;11.50;99.90;;;;;;5065246;28;20392;-73
2021/11/02 14:05:57;;;;;;;;;;;11.40;99.90;;;;;;5064953;28;20221;-73
2021/11/02 14:08:24;;;;;;;;;;;11.20;99.90;;;;;;5068931;28;19948;-72
2021/11/02 14:10:51;;;;;;;;;;;11.10;99.90;;;;;;5063327;28;19924;-73
2021/11/02 14:13:36;;;;;;;;;;;10.90;99.90;;;;;;5066048;28;19938;-74
2021/11/02 14:16:03;;;;;;;;;;;10.90;99.90;;;;;;5062807;28;19924;-73
2021/11/02 14:18:33;;;;;;;;;;;10.80;99.90;;;;;;5069394;28;20051;-74
2021/11/02 14:21:00;;;;;;;;;;;10.70;99.90;;;;;;5068530;28;20450;-74
2021/11/02 14:23:34;;;;;;;;;;;10.70;99.90;;;;;;5063595;28;19925;-73
2021/11/02 14:26:14;;;;;;;;;;;10.60;99.90;;;;;;5058884;28;19955;-73
2021/11/02 14:28:46;;;;;;;;;;;10.60;99.90;;;;;;5060279;28;19924;-74
2021/11/02 14:31:37;;;;;;;;;;;10.60;99.90;;;;;;5060315;28;19925;-74
2021/11/02 14:34:05;;;;;;;;;;;10.60;99.90;;;;;;5064767;28;19936;-74
2021/11/02 14:36:38;;;;;;;;;;;10.60;99.90;;;;;;5065934;28;20033;-74
2021/11/02 14:39:05;;;;;;;;;;;10.60;99.90;;;;;;5063276;28;20505;-74
2021/11/02 14:41:33;;;;;;;;;;;10.60;99.90;;;;;;5063856;28;19933;-74
2021/11/02 14:44:23;;;;;;;;;;;10.60;99.90;;;;;;5066324;28;19944;-74
2021/11/02 14:46:50;;;;;;;;;;;10.60;99.90;;;;;;5065306;28;20415;-74
2021/11/02 14:49:32;;;;;;;;;;;10.50;99.90;;;;;;5064130;28;20022;-74
2021/11/02 14:52:01;;;;;;;;;;;10.40;99.90;;;;;;5067818;28;19924;-74
2021/11/02 14:54:30;;;;;;;;;;;10.30;99.90;;;;;;5066418;28;20003;-74
2021/11/02 14:56:57;;;;;;;;;;;10.30;99.90;;;;;;5065080;28;19971;-74
2021/11/02 14:59:44;;;;;;;;;;;10.20;99.90;;;;;;5067583;28;19928;-74
2021/11/02 15:02:15;;;;;;;;;;;10.10;99.90;;;;;;5068465;28;20332;-74
2021/11/02 15:04:42;;;;;;;;;;;10.00;99.90;;;;;;5063849;28;19924;-74
2021/11/02 15:07:12;;;;;;;;;;;10.00;99.90;;;;;;5069041;28;19949;-74
2021/11/02 15:09:39;;;;;;;;;;;9.90;99.90;;;;;;5066503;28;20008;-74
2021/11/02 15:12:06;;;;;;;;;;;9.80;99.90;;;;;;5066620;28;19925;-74
2021/11/02 15:14:34;;;;;;;;;;;9.80;99.90;;;;;;5059893;28;20015;-74
2021/11/02 15:17:02;;;;;;;;;;;9.80;99.90;;;;;;5061938;28;19932;-74
2021/11/02 15:19:29;;;;;;;;;;;9.70;99.90;;;;;;5065433;28;19924;-74
2021/11/02 15:21:57;;;;;;;;;;;9.70;99.90;;;;;;5066893;28;19931;-74
2021/11/02 15:24:26;;;;;;;;;;;9.70;99.90;;;;;;5063579;28;19928;-74
2021/11/02 15:26:57;;;;;;;;;;;9.60;99.90;;;;;;5067498;28;20583;-74
2021/11/02 15:29:25;;;;;;;;;;;9.70;99.90;;;;;;5064584;28;19924;-73
2021/11/02 15:31:57;;;;;;;;;;;9.70;99.90;;;;;;5069462;28;19924;-74
2021/11/02 15:34:23;;;;;;;;;;;9.60;99.90;;;;;;5067008;28;19924;-74
2021/11/02 15:37:01;;;;;;;;;;;9.60;99.90;;;;;;5068537;28;20027;-75
2021/11/02 15:39:29;;;;;;;;;;;9.60;99.90;;;;;;5069982;28;19925;-74
2021/11/02 15:41:56;;;;;;;;;;;9.60;99.90;;;;;;5070197;28;19972;-76
2021/11/02 15:44:26;;;;;;;;;;;9.70;99.90;;;;;;5070230;28;19924;-72
2021/11/02 15:46:53;;;;;;;;;;;9.70;99.90;;;;;;5065488;28;19924;-72
2021/11/02 15:49:22;;;;;;;;;;;9.80;99.90;;;;;;5068844;28;20398;-74
2021/11/02 15:51:52;;;;;;;;;;;9.90;99.90;;;;;;5068350;28;19928;-74
2021/11/02 15:54:19;;;;;;;;;;;10.00;99.90;;;;;;5064178;28;20348;-75
2021/11/02 15:56:47;;;;;;;;;;;10.10;99.90;;;;;;5067863;28;20023;-72
2021/11/02 15:59:14;;;;;;;;;;;10.10;99.90;;;;;;5069166;28;19931;-74
2021/11/02 16:01:42;;;;;;;;;;;10.00;99.90;;;;;;5062838;28;19928;-74
2021/11/02 16:04:20;;;;;;;;;;;10.00;99.90;;;;;;5064062;28;19932;-72
2021/11/02 16:06:56;;;;;;;;;;;9.80;99.90;;;;;;5063234;28;19925;-73
2021/11/02 16:09:23;;;;;;;;;;;9.70;99.90;;;;;;5065427;28;19954;-74
2021/11/02 16:11:51;;;;;;;;;;;9.60;99.90;;;;;;5066429;28;19931;-73
2021/11/02 16:14:18;;;;;;;;;;;9.50;99.90;;;;;;5066096;28;20251;-73
2021/11/02 16:16:46;;;;;;;;;;;9.50;99.90;;;;;;5062448;28;20007;-73
2021/11/02 16:19:12;;;;;;;;;;;9.40;99.90;;;;;;5063294;28;19925;-72
2021/11/02 16:21:39;;;;;;;;;;;9.30;99.90;;;;;;5064736;28;20034;-72
2021/11/02 16:24:07;;;;;;;;;;;9.20;99.90;;;;;;5067414;28;19939;-71
2021/11/02 16:26:37;;;;;;;;;;;9.30;99.90;;;;;;5063332;28;19935;-73
2021/11/02 16:29:08;;;;;;;;;;;9.10;99.90;;;;;;5066042;28;20310;-73
2021/11/02 16:31:35;;;;;;;;;;;9.10;99.90;;;;;;5065204;28;19924;-73
2021/11/02 16:34:14;;;;;;;;;;;9.00;99.90;;;;;;5066241;28;20066;-73
2021/11/02 16:36:41;;;;;;;;;;;9.00;99.90;;;;;;5063542;28;19924;-73
2021/11/02 16:39:19;;;;;;;;;;;9.00;99.90;;;;;;5063484;28;20016;-73
2021/11/02 16:41:47;;;;;;;;;;;9.00;99.90;;;;;;5064719;28;19932;-74
2021/11/02 16:44:16;;;;;;;;;;;9.00;99.90;;;;;;5063411;28;20384;-73
2021/11/02 16:46:44;;;;;;;;;;;9.00;99.90;;;;;;5066290;28;19924;-74
2021/11/02 16:49:12;;;;;;;;;;;9.10;99.90;;;;;;5064754;28;19993;-74
2021/11/02 16:51:44;;;;;;;;;;;9.00;99.90;;;;;;5067446;28;19928;-74
2021/11/02 16:54:12;;;;;;;;;;;8.90;99.90;;;;;;5067553;28;19955;-74
2021/11/02 16:56:55;;;;;;;;;;;8.80;99.90;;;;;;5067735;28;20361;-73
2021/11/02 16:59:44;;;;;;;;;;;8.80;99.90;;;;;;5068181;28;19946;-74
2021/11/02 17:02:15;;;;;;;;;;;8.70;99.90;;;;;;5067232;28;19931;-73
2021/11/02 17:04:42;;;;;;;;;;;8.70;99.90;;;;;;5066241;28;19932;-73
2021/11/02 17:07:12;;;;;;;;;;;8.70;99.90;;;;;;5068567;28;19932;-73
2021/11/02 17:09:40;;;;;;;;;;;8.60;99.90;;;;;;5066606;28;20808;-73
2021/11/02 17:12:09;;;;;;;;;;;8.60;99.90;;;;;;5069575;28;19991;-73
2021/11/02 17:14:41;;;;;;;;;;;8.60;99.90;;;;;;5069553;28;19928;-73
2021/11/02 17:17:09;;;;;;;;;;;8.60;99.90;;;;;;5061087;28;19933;-73
2021/11/02 17:19:43;;;;;;;;;;;8.70;99.90;;;;;;5067570;28;19925;-73
2021/11/02 17:22:09;;;;;;;;;;;8.80;99.90;;;;;;5061818;28;20292;-73
2021/11/02 17:24:36;;;;;;;;;;;8.90;99.90;;;;;;5069300;28;20014;-72
2021/11/02 17:27:03;;;;;;;;;;;8.90;99.90;;;;;;5069276;28;20007;-73
2021/11/02 17:29:30;;;;;;;;;;;8.90;99.90;;;;;;5067876;28;19924;-73
2021/11/02 17:31:58;;;;;;;;;;;8.90;99.90;;;;;;5068293;28;20024;-73
2021/11/02 17:34:25;;;;;;;;;;;8.90;99.90;;;;;;5069296;28;20004;-73
2021/11/02 17:36:56;;;;;;;;;;;8.80;99.90;;;;;;5070943;28;19979;-73
2021/11/02 17:39:23;;;;;;;;;;;8.80;99.90;;;;;;5065463;28;20384;-73
2021/11/02 17:41:51;;;;;;;;;;;8.70;99.90;;;;;;5068783;28;19924;-74
2021/11/02 17:44:18;;;;;;;;;;;8.60;99.90;;;;;;5065746;28;19925;-73
2021/11/02 17:46:45;;;;;;;;;;;8.40;99.90;;;;;;5068414;28;20029;-74
2021/11/02 17:49:14;;;;;;;;;;;8.30;99.90;;;;;;5065773;28;19971;-74
2021/11/02 17:51:41;;;;;;;;;;;8.30;99.90;;;;;;5066762;28;19924;-73
2021/11/02 17:54:08;;;;;;;;;;;8.30;99.90;;;;;;5066072;28;19986;-75
2021/11/02 17:56:35;;;;;;;;;;;8.20;99.90;;;;;;5067361;28;19931;-74
2021/11/02 17:59:04;;;;;;;;;;;8.20;99.90;;;;;;5065042;28;20542;-73
2021/11/02 18:01:31;;;;;;;;;;;8.30;99.90;;;;;;5067737;28;19931;-73
2021/11/02 18:03:59;;;;;;;;;;;8.20;99.90;;;;;;5065010;28;20487;-73
2021/11/02 18:06:28;;;;;;;;;;;8.30;99.90;;;;;;5067776;28;19930;-74
2021/11/02 18:08:54;;;;;;;;;;;8.30;99.90;;;;;;5065797;28;20020;-74
2021/11/02 18:11:21;;;;;;;;;;;8.20;99.90;;;;;;5065646;28;20023;-73
2021/11/02 18:13:49;;;;;;;;;;;8.20;99.90;;;;;;5065042;28;19936;-73
2021/11/02 18:16:17;;;;;;;;;;;8.10;99.90;;;;;;5067113;28;20026;-73
2021/11/02 18:18:44;;;;;;;;;;;8.00;99.90;;;;;;5065759;28;19975;-74
2021/11/02 18:21:12;;;;;;;;;;;7.90;99.90;;;;;;5062783;28;19935;-73
2021/11/02 18:23:41;;;;;;;;;;;7.80;99.90;;;;;;5066762;28;19924;-73
2021/11/02 18:26:08;;;;;;;;;;;7.70;99.90;;;;;;5069349;28;19959;-73
2021/11/02 18:28:34;;;;;;;;;;;7.60;99.90;;;;;;5069947;28;20383;-73
2021/11/02 18:31:01;;;;;;;;;;;7.60;99.90;;;;;;5065631;28;19932;-74
2021/11/02 18:33:28;;;;;;;;;;;7.50;99.90;;;;;;5069527;28;20031;-74
2021/11/02 18:35:56;;;;;;;;;;;7.50;99.90;;;;;;5060563;28;19931;-74
2021/11/02 18:38:23;;;;;;;;;;;7.40;99.90;;;;;;5069457;28;19928;-74
2021/11/02 18:40:51;;;;;;;;;;;7.30;99.90;;;;;;5064904;28;20307;-74
2021/11/02 18:43:18;;;;;;;;;;;7.30;99.90;;;;;;5066575;28;19925;-74
2021/11/02 18:45:46;;;;;;;;;;;7.20;99.90;;;;;;5067196;28;20375;-74
2021/11/02 18:48:14;;;;;;;;;;;7.20;99.90;;;;;;5065364;28;19940;-74
2021/11/02 18:50:41;;;;;;;;;;;7.10;99.90;;;;;;5067115;28;19978;-73
2021/11/02 18:53:07;;;;;;;;;;;7.10;99.90;;;;;;5070415;28;19970;-74